createdAt,value
2018-02-13T00:00:54.742Z,0.75
2018-02-13T00:01:54.801Z,0.73
2018-02-13T00:02:54.746Z,0.74
2018-02-13T00:03:54.733Z,0.73
2018-02-13T00:04:54.786Z,0.72
2018-02-13T00:05:54.915Z,0.73
2018-02-13T00:06:54.725Z,0.7
2018-02-13T00:07:54.896Z,0.69
2018-02-13T00:08:54.739Z,0.66
2018-02-13T00:12:54.984Z,0.61
2018-02-13T00:13:56.155Z,0.61
2018-02-13T00:14:55.820Z,0.58
2018-02-13T00:15:54.690Z,0.59
2018-02-13T00:16:54.666Z,0.6
2018-02-13T00:17:54.725Z,0.63
2018-02-13T00:18:54.732Z,0.64
2018-02-13T00:19:54.668Z,0.63
2018-02-13T00:20:55.767Z,0.64
2018-02-13T00:21:54.924Z,0.67
2018-02-13T00:22:54.662Z,0.68
2018-02-13T00:23:54.672Z,0.65
2018-02-13T00:24:54.677Z,0.67
2018-02-13T00:25:54.672Z,0.64
2018-02-13T00:26:54.687Z,0.63
2018-02-13T00:27:54.965Z,0.63
2018-02-13T00:28:54.693Z,0.62
2018-02-13T00:29:54.708Z,0.65
2018-02-13T00:30:54.664Z,0.64
2018-02-13T00:31:54.659Z,0.65
2018-02-13T00:32:55.006Z,0.68
2018-02-13T00:33:56.221Z,0.66
2018-02-13T00:34:54.680Z,0.69
2018-02-13T00:35:55.404Z,0.7
2018-02-13T00:36:54.686Z,0.69
2018-02-13T00:37:54.666Z,0.7
2018-02-13T00:38:54.681Z,0.69
2018-02-13T00:39:54.969Z,0.7
2018-02-13T00:40:54.732Z,0.68
2018-02-13T00:41:55.078Z,0.69
2018-02-13T00:42:55.151Z,0.68
2018-02-13T00:43:54.853Z,0.67
2018-02-13T00:44:54.748Z,0.67
2018-02-13T00:45:54.685Z,0.65
2018-02-13T00:46:54.581Z,0.65
2018-02-13T00:47:54.587Z,0.67
2018-02-13T00:48:54.574Z,0.65
2018-02-13T00:49:54.600Z,0.65
2018-02-13T00:50:54.567Z,0.65
2018-02-13T00:51:54.598Z,0.67
2018-02-13T00:52:54.613Z,0.65
2018-02-13T00:53:54.620Z,0.67
2018-02-13T00:54:54.637Z,0.65
2018-02-13T00:55:54.607Z,0.66
2018-02-13T00:56:54.601Z,0.69
2018-02-13T00:57:54.574Z,0.65
2018-02-13T00:58:54.592Z,0.68
2018-02-13T00:59:55.519Z,0.67
2018-02-13T01:00:54.592Z,0.69
2018-02-13T01:01:54.727Z,0.69
2018-02-13T01:02:54.584Z,0.69
2018-02-13T01:03:54.597Z,0.68
2018-02-13T01:04:54.620Z,0.68
2018-02-13T01:05:54.596Z,0.67
2018-02-13T01:06:54.633Z,0.69
2018-02-13T01:07:54.614Z,0.68
2018-02-13T01:08:54.608Z,0.68
2018-02-13T01:09:54.624Z,0.69
2018-02-13T01:10:54.623Z,0.68
2018-02-13T01:11:54.606Z,0.69
2018-02-13T01:12:54.587Z,0.68
2018-02-13T01:13:54.603Z,0.68
2018-02-13T01:14:54.606Z,0.69
2018-02-13T01:15:54.615Z,0.69
2018-02-13T01:16:54.621Z,0.68
2018-02-13T01:17:54.425Z,0.69
2018-02-13T01:18:54.450Z,0.66
2018-02-13T01:19:54.463Z,0.67
2018-02-13T01:20:54.637Z,0.65
2018-02-13T01:21:54.504Z,0.67
2018-02-13T01:22:54.442Z,0.65
2018-02-13T01:23:54.451Z,0.66
2018-02-13T01:24:54.454Z,0.65
2018-02-13T01:25:54.444Z,0.64
2018-02-13T01:26:54.447Z,0.64
2018-02-13T01:27:54.437Z,0.67
2018-02-13T01:28:54.460Z,0.63
2018-02-13T01:29:54.453Z,0.64
2018-02-13T01:30:54.455Z,0.65
2018-02-13T01:31:54.466Z,0.63
2018-02-13T01:32:55.055Z,0.63
2018-02-13T01:33:55.433Z,0.62
2018-02-13T01:34:54.455Z,0.65
2018-02-13T01:35:55.432Z,0.63
2018-02-13T01:36:54.452Z,0.62
2018-02-13T01:37:54.466Z,0.59
2018-02-13T01:38:54.445Z,0.61
2018-02-13T01:42:06.532Z,0.57
2018-02-13T01:42:54.455Z,0.55
2018-02-13T01:43:54.962Z,0.53
2018-02-13T01:44:54.449Z,0.55
2018-02-13T01:45:54.466Z,0.55
2018-02-13T01:46:54.442Z,0.56
2018-02-13T01:47:54.470Z,0.55
2018-02-13T01:48:54.293Z,0.56
2018-02-13T01:49:54.310Z,0.55
2018-02-13T01:50:54.318Z,0.53
2018-02-13T01:51:54.509Z,0.54
2018-02-13T01:52:54.302Z,0.53
2018-02-13T01:53:54.549Z,0.52
2018-02-13T01:54:54.357Z,0.55
2018-02-13T01:55:54.302Z,0.52
2018-02-13T01:56:54.304Z,0.52
2018-02-13T01:57:54.306Z,0.52
2018-02-13T02:00:28.554Z,0.51
2018-02-13T02:00:54.456Z,0.51
2018-02-13T02:01:55.042Z,0.51
2018-02-13T02:02:54.314Z,0.51
2018-02-13T02:03:54.318Z,0.5
2018-02-13T02:04:54.323Z,0.5
2018-02-13T02:05:54.345Z,0.47
2018-02-13T02:06:54.303Z,0.49
2018-02-13T02:07:54.280Z,0.48
2018-02-13T02:08:54.784Z,0.48
2018-02-13T02:09:54.874Z,0.46
2018-02-13T02:10:54.314Z,0.46
2018-02-13T02:11:54.310Z,0.46
2018-02-13T02:12:54.760Z,0.49
2018-02-13T02:13:54.318Z,0.47
2018-02-13T02:14:54.698Z,0.49
2018-02-13T02:15:54.288Z,0.48
2018-02-13T02:16:54.327Z,0.49
2018-02-13T02:17:54.319Z,0.46
2018-02-13T02:18:54.324Z,0.47
2018-02-13T02:19:54.268Z,0.4
2018-02-13T02:20:54.228Z,0.38
2018-02-13T02:21:54.269Z,0.37
2018-02-13T02:22:54.245Z,0.35
2018-02-13T02:23:54.241Z,0.36
2018-02-13T02:24:54.223Z,0.35
2018-02-13T02:25:54.481Z,0.36
2018-02-13T02:26:54.220Z,0.38
2018-02-13T02:27:54.247Z,0.38
2018-02-13T02:28:54.250Z,0.38
2018-02-13T02:29:54.276Z,0.38
2018-02-13T02:30:54.241Z,0.38
2018-02-13T02:31:54.220Z,0.4
2018-02-13T02:32:54.237Z,0.39
2018-02-13T02:33:54.242Z,0.38
2018-02-13T02:34:54.247Z,0.38
2018-02-13T02:35:54.330Z,0.38
2018-02-13T02:36:54.216Z,0.35
2018-02-13T02:37:54.244Z,0.34
2018-02-13T02:38:54.232Z,0.33
2018-02-13T02:39:54.236Z,0.34
2018-02-13T02:40:54.289Z,0.33
2018-02-13T02:41:54.336Z,0.33
2018-02-13T02:42:54.250Z,0.32
2018-02-13T02:43:54.272Z,0.32
2018-02-13T02:44:54.239Z,0.32
2018-02-13T02:45:54.265Z,0.32
2018-02-13T02:46:54.228Z,0.32
2018-02-13T02:47:54.284Z,0.3
2018-02-13T02:48:54.241Z,0.3
2018-02-13T02:49:54.266Z,0.28
2018-02-13T02:50:54.115Z,0.26
2018-02-13T02:51:54.162Z,0.25
2018-02-13T02:52:54.110Z,0.24
2018-02-13T02:53:54.160Z,0.22
2018-02-13T02:54:54.103Z,0.24
2018-02-13T02:55:54.295Z,0.22
2018-02-13T02:56:54.105Z,0.25
2018-02-13T02:57:54.098Z,0.23
2018-02-13T02:58:54.095Z,0.22
2018-02-13T02:59:54.094Z,0.21
2018-02-13T03:00:54.136Z,0.21
2018-02-13T03:01:54.178Z,0.21
2018-02-13T03:02:54.104Z,0.2
2018-02-13T03:03:54.122Z,0.19
2018-02-13T03:04:54.086Z,0.19
2018-02-13T03:05:54.169Z,0.19
2018-02-13T03:06:54.079Z,0.16
2018-02-13T03:07:54.246Z,0.16
2018-02-13T03:10:21.151Z,0.14
2018-02-13T03:10:54.094Z,0.14
2018-02-13T03:11:54.088Z,0.14
2018-02-13T03:12:54.111Z,0.12
2018-02-13T03:13:54.170Z,0.15
2018-02-13T03:14:54.087Z,0.16
2018-02-13T03:15:54.090Z,0.18
2018-02-13T03:16:54.100Z,0.19
2018-02-13T03:18:02.153Z,0.18
2018-02-13T03:18:54.161Z,0.2
2018-02-13T03:19:54.148Z,0.21
2018-02-13T03:20:54.089Z,0.21
2018-02-13T03:21:53.930Z,0.22
2018-02-13T03:22:53.919Z,0.19
2018-02-13T03:23:53.970Z,0.19
2018-02-13T03:24:53.928Z,0.19
2018-02-13T03:25:53.919Z,0.17
2018-02-13T03:26:53.924Z,0.19
2018-02-13T03:27:53.983Z,0.19
2018-02-13T03:28:53.925Z,0.18
2018-02-13T03:29:53.914Z,0.17
2018-02-13T03:30:53.956Z,0.15
2018-02-13T03:31:53.935Z,0.17
2018-02-13T03:32:53.982Z,0.18
2018-02-13T03:33:53.918Z,0.14
2018-02-13T03:34:53.947Z,0.13
2018-02-13T03:35:53.961Z,0.11
2018-02-13T03:36:53.939Z,0.1
2018-02-13T03:37:53.923Z,0.04
2018-02-13T03:38:53.966Z,0.07
2018-02-13T03:39:53.952Z,0.05
2018-02-13T03:40:53.953Z,0.03
2018-02-13T03:41:53.965Z,0.03
2018-02-13T03:42:53.930Z,0.04
2018-02-13T03:43:53.961Z,0.02
2018-02-13T03:44:53.968Z,0.02
2018-02-13T03:45:53.939Z,0.01
2018-02-13T03:46:53.951Z,-0.01
2018-02-13T03:47:54.013Z,-0.01
2018-02-13T03:48:53.993Z,-0.02
2018-02-13T03:49:53.935Z,-0.02
2018-02-13T03:50:53.937Z,-0.02
2018-02-13T03:51:53.936Z,0
2018-02-13T03:52:54.758Z,0.01
2018-02-13T03:53:55.073Z,0
2018-02-13T03:54:54.771Z,0.01
2018-02-13T03:55:54.780Z,0
2018-02-13T03:56:54.765Z,-0.01
2018-02-13T03:57:54.762Z,0
2018-02-13T03:58:54.798Z,0.01
2018-02-13T03:59:54.770Z,-0.01
2018-02-13T04:00:54.780Z,-0.02
2018-02-13T04:01:54.772Z,-0.01
2018-02-13T04:02:54.788Z,-0.01
2018-02-13T04:03:54.805Z,-0.04
2018-02-13T04:04:54.798Z,-0.03
2018-02-13T04:05:54.813Z,-0.06
2018-02-13T04:06:54.835Z,-0.07
2018-02-13T04:07:54.772Z,-0.1
2018-02-13T04:08:54.794Z,-0.12
2018-02-13T04:09:54.801Z,-0.15
2018-02-13T04:10:54.779Z,-0.15
2018-02-13T04:11:54.801Z,-0.17
2018-02-13T04:12:54.793Z,-0.18
2018-02-13T04:13:54.802Z,-0.19
2018-02-13T04:14:54.830Z,-0.22
2018-02-13T04:15:54.783Z,-0.23
2018-02-13T04:16:54.799Z,-0.23
2018-02-13T04:17:54.797Z,-0.23
2018-02-13T04:18:54.812Z,-0.28
2018-02-13T04:19:54.797Z,-0.28
2018-02-13T04:20:54.786Z,-0.29
2018-02-13T04:21:54.784Z,-0.29
2018-02-13T04:22:54.640Z,-0.29
2018-02-13T04:23:54.741Z,-0.28
2018-02-13T04:24:54.619Z,-0.29
2018-02-13T04:25:54.616Z,-0.29
2018-02-13T04:26:54.627Z,-0.3
2018-02-13T04:27:54.616Z,-0.3
2018-02-13T04:28:54.715Z,-0.3
2018-02-13T04:29:54.617Z,-0.3
2018-02-13T04:30:54.639Z,-0.29
2018-02-13T04:31:54.630Z,-0.26
2018-02-13T04:32:54.648Z,-0.29
2018-02-13T04:33:54.748Z,-0.3
2018-02-13T04:34:54.627Z,-0.3
2018-02-13T04:35:54.623Z,-0.31
2018-02-13T04:36:54.637Z,-0.29
2018-02-13T04:37:54.634Z,-0.29
2018-02-13T04:38:54.724Z,-0.28
2018-02-13T04:39:54.648Z,-0.29
2018-02-13T04:40:54.906Z,-0.3
2018-02-13T04:41:54.636Z,-0.32
2018-02-13T04:42:54.640Z,-0.29
2018-02-13T04:43:54.650Z,-0.28
2018-02-13T04:44:54.635Z,-0.26
2018-02-13T04:45:54.647Z,-0.29
2018-02-13T04:46:54.623Z,-0.31
2018-02-13T04:47:54.637Z,-0.32
2018-02-13T04:48:54.669Z,-0.33
2018-02-13T04:49:54.648Z,-0.34
2018-02-13T04:50:54.636Z,-0.31
2018-02-13T04:51:54.617Z,-0.33
2018-02-13T04:52:54.639Z,-0.3
2018-02-13T04:53:54.477Z,-0.3
2018-02-13T04:54:54.459Z,-0.28
2018-02-13T04:55:54.850Z,-0.29
2018-02-13T04:56:54.469Z,-0.26
2018-02-13T04:57:54.454Z,-0.25
2018-02-13T04:58:54.473Z,-0.26
2018-02-13T04:59:54.485Z,-0.25
2018-02-13T05:00:54.521Z,-0.25
2018-02-13T05:01:54.473Z,-0.24
2018-02-13T05:02:54.473Z,-0.2
2018-02-13T05:03:54.482Z,-0.2
2018-02-13T05:04:54.489Z,-0.19
2018-02-13T05:05:54.878Z,-0.19
2018-02-13T05:06:54.466Z,-0.14
2018-02-13T05:07:54.487Z,-0.14
2018-02-13T05:08:54.472Z,-0.13
2018-02-13T05:09:54.472Z,-0.13
2018-02-13T05:10:54.510Z,-0.12
2018-02-13T05:11:54.486Z,-0.1
2018-02-13T05:12:54.466Z,-0.11
2018-02-13T05:13:54.482Z,-0.09
2018-02-13T05:14:54.476Z,-0.07
2018-02-13T05:15:54.464Z,-0.06
2018-02-13T05:16:54.472Z,-0.04
2018-02-13T05:17:54.560Z,-0.04
2018-02-13T05:18:54.484Z,-0.03
2018-02-13T05:19:54.482Z,-0.06
2018-02-13T05:20:54.498Z,-0.1
2018-02-13T05:21:54.488Z,-0.07
2018-02-13T05:22:54.512Z,-0.08
2018-02-13T05:23:54.491Z,-0.1
2018-02-13T05:24:54.319Z,-0.1
2018-02-13T05:25:54.355Z,-0.07
2018-02-13T05:26:54.325Z,-0.07
2018-02-13T05:28:54.346Z,-0.1
2018-02-13T05:29:54.338Z,-0.08
2018-02-13T05:30:54.315Z,-0.1
2018-02-13T05:31:54.303Z,-0.09
2018-02-13T05:32:54.360Z,-0.08
2018-02-13T05:33:54.362Z,-0.09
2018-02-13T05:34:54.350Z,-0.07
2018-02-13T05:35:54.301Z,-0.05
2018-02-13T05:36:54.322Z,-0.05
2018-02-13T05:37:54.364Z,-0.06
2018-02-13T05:38:54.336Z,-0.04
2018-02-13T05:39:54.374Z,-0.03
2018-02-13T05:40:54.335Z,-0.04
2018-02-13T05:41:54.340Z,-0.03
2018-02-13T05:42:54.361Z,-0.06
2018-02-13T05:43:54.338Z,-0.06
2018-02-13T05:44:54.337Z,-0.06
2018-02-13T05:45:54.336Z,-0.06
2018-02-13T05:46:54.355Z,-0.07
2018-02-13T05:47:54.329Z,-0.1
2018-02-13T05:48:54.371Z,-0.1
2018-02-13T05:49:54.380Z,-0.12
2018-02-13T05:50:54.479Z,-0.08
2018-02-13T05:51:54.332Z,-0.12
2018-02-13T05:52:54.338Z,-0.12
2018-02-13T05:53:54.321Z,-0.11
2018-02-13T05:54:54.338Z,-0.12
2018-02-13T05:55:54.234Z,-0.12
2018-02-13T05:56:54.218Z,-0.13
2018-02-13T06:00:22.249Z,-0.12
2018-02-13T06:00:54.232Z,-0.12
2018-02-13T06:01:54.637Z,-0.12
2018-02-13T06:02:54.253Z,-0.11
2018-02-13T06:03:54.223Z,-0.11
2018-02-13T06:04:54.210Z,-0.1
2018-02-13T06:05:54.218Z,-0.08
2018-02-13T06:06:54.617Z,-0.07
2018-02-13T06:07:54.214Z,-0.07
2018-02-13T06:08:54.245Z,-0.08
2018-02-13T06:09:54.231Z,-0.08
2018-02-13T06:10:54.255Z,-0.1
2018-02-13T06:11:54.233Z,-0.09
2018-02-13T06:12:54.236Z,-0.08
2018-02-13T06:13:54.222Z,-0.07
2018-02-13T06:14:54.217Z,-0.06
2018-02-13T06:15:54.270Z,-0.04
2018-02-13T06:16:54.281Z,-0.01
2018-02-13T06:17:54.239Z,0
2018-02-13T06:18:54.225Z,-0.02
2018-02-13T06:19:54.279Z,-0.03
2018-02-13T06:20:54.498Z,-0.05
2018-02-13T06:21:54.229Z,-0.05
2018-02-13T06:22:54.236Z,-0.02
2018-02-13T06:23:54.251Z,-0.02
2018-02-13T06:24:54.242Z,-0.02
2018-02-13T06:25:54.216Z,-0.06
2018-02-13T06:26:54.090Z,-0.06
2018-02-13T06:27:54.036Z,-0.06
2018-02-13T06:28:54.080Z,-0.06
2018-02-13T06:29:54.070Z,-0.09
2018-02-13T06:30:54.066Z,-0.1
2018-02-13T06:31:54.067Z,-0.11
2018-02-13T06:32:54.067Z,-0.1
2018-02-13T06:33:54.062Z,-0.11
2018-02-13T06:34:54.109Z,-0.11
2018-02-13T06:35:54.126Z,-0.07
2018-02-13T06:36:54.063Z,-0.1
2018-02-13T06:37:54.084Z,-0.07
2018-02-13T06:38:54.356Z,-0.09
2018-02-13T06:39:54.142Z,-0.06
2018-02-13T06:40:54.085Z,-0.1
2018-02-13T06:41:54.086Z,-0.1
2018-02-13T06:42:54.135Z,-0.1
2018-02-13T06:43:54.077Z,-0.11
2018-02-13T06:44:54.104Z,-0.09
2018-02-13T06:45:54.089Z,-0.08
2018-02-13T06:46:54.066Z,-0.1
2018-02-13T06:47:54.069Z,-0.1
2018-02-13T06:48:54.083Z,-0.11
2018-02-13T06:49:54.084Z,-0.12
2018-02-13T06:50:54.070Z,-0.13
2018-02-13T06:51:54.063Z,-0.14
2018-02-13T06:52:54.070Z,-0.12
2018-02-13T06:53:54.084Z,-0.14
2018-02-13T06:54:54.070Z,-0.12
2018-02-13T06:55:54.059Z,-0.11
2018-02-13T06:56:54.181Z,-0.11
2018-02-13T06:57:53.999Z,-0.11
2018-02-13T06:58:54.073Z,-0.11
2018-02-13T06:59:54.018Z,-0.11
2018-02-13T07:00:54.084Z,-0.12
2018-02-13T07:01:54.043Z,-0.11
2018-02-13T07:02:54.014Z,-0.1
2018-02-13T07:03:54.009Z,-0.09
2018-02-13T07:04:54.020Z,-0.09
2018-02-13T07:05:54.001Z,-0.09
2018-02-13T07:06:54.004Z,-0.1
2018-02-13T07:07:54.013Z,-0.09
2018-02-13T07:08:54.033Z,-0.11
2018-02-13T07:09:54.000Z,-0.11
2018-02-13T07:10:54.013Z,-0.11
2018-02-13T07:11:54.009Z,-0.11
2018-02-13T07:12:54.014Z,-0.09
2018-02-13T07:13:54.006Z,-0.05
2018-02-13T07:14:53.996Z,-0.06
2018-02-13T07:15:54.031Z,-0.06
2018-02-13T07:16:54.098Z,-0.07
2018-02-13T07:17:54.017Z,-0.05
2018-02-13T07:18:54.006Z,-0.05
2018-02-13T07:19:54.039Z,-0.05
2018-02-13T07:20:54.033Z,-0.03
2018-02-13T07:21:54.053Z,-0.01
2018-02-13T07:22:54.021Z,0.01
2018-02-13T07:23:54.017Z,0.03
2018-02-13T07:24:54.035Z,0.04
2018-02-13T07:25:54.006Z,0.07
2018-02-13T07:26:54.070Z,0.08
2018-02-13T07:27:54.006Z,0.09
2018-02-13T07:28:53.900Z,0.06
2018-02-13T07:29:53.913Z,0.09
2018-02-13T07:30:53.883Z,0.08
2018-02-13T07:31:53.998Z,0.1
2018-02-13T07:32:53.901Z,0.1
2018-02-13T07:33:53.882Z,0.13
2018-02-13T07:34:53.891Z,0.13
2018-02-13T07:35:53.892Z,0.14
2018-02-13T07:36:53.910Z,0.15
2018-02-13T07:37:53.886Z,0.16
2018-02-13T07:38:53.921Z,0.19
2018-02-13T07:39:53.940Z,0.17
2018-02-13T07:40:54.003Z,0.17
2018-02-13T07:41:53.897Z,0.21
2018-02-13T07:42:53.894Z,0.22
2018-02-13T07:43:53.889Z,0.23
2018-02-13T07:44:53.906Z,0.25
2018-02-13T07:45:53.913Z,0.25
2018-02-13T07:46:53.929Z,0.25
2018-02-13T07:47:53.883Z,0.25
2018-02-13T07:48:53.911Z,0.26
2018-02-13T07:49:53.902Z,0.27
2018-02-13T07:50:53.905Z,0.28
2018-02-13T07:51:53.911Z,0.31
2018-02-13T07:52:53.884Z,0.32
2018-02-13T07:53:53.893Z,0.31
2018-02-13T07:54:53.962Z,0.34
2018-02-13T07:55:53.920Z,0.36
2018-02-13T07:56:53.893Z,0.32
2018-02-13T07:57:53.976Z,0.37
2018-02-13T07:58:53.889Z,0.35
2018-02-13T07:59:54.733Z,0.37
2018-02-13T08:00:55.028Z,0.38
2018-02-13T08:01:54.726Z,0.39
2018-02-13T08:02:54.721Z,0.39
2018-02-13T08:03:54.741Z,0.43
2018-02-13T08:04:54.711Z,0.42
2018-02-13T08:05:54.752Z,0.42
2018-02-13T08:06:54.706Z,0.4
2018-02-13T08:07:54.873Z,0.43
2018-02-13T08:08:54.762Z,0.42
2018-02-13T08:09:54.861Z,0.44
2018-02-13T08:10:54.751Z,0.42
2018-02-13T08:11:54.720Z,0.45
2018-02-13T08:12:54.716Z,0.46
2018-02-13T08:13:54.713Z,0.46
2018-02-13T08:14:54.721Z,0.47
2018-02-13T08:15:54.715Z,0.46
2018-02-13T08:16:54.722Z,0.48
2018-02-13T08:17:54.732Z,0.49
2018-02-13T08:18:54.726Z,0.51
2018-02-13T08:19:54.743Z,0.52
2018-02-13T08:20:54.715Z,0.54
2018-02-13T08:21:54.733Z,0.52
2018-02-13T08:22:54.715Z,0.54
2018-02-13T08:23:54.743Z,0.52
2018-02-13T08:24:54.709Z,0.49
2018-02-13T08:25:54.715Z,0.5
2018-02-13T08:26:54.732Z,0.51
2018-02-13T08:27:54.821Z,0.49
2018-02-13T08:28:54.772Z,0.46
2018-02-13T08:29:54.649Z,0.5
2018-02-13T08:30:54.627Z,0.5
2018-02-13T08:31:54.634Z,0.51
2018-02-13T08:32:54.608Z,0.51
2018-02-13T08:33:54.647Z,0.53
2018-02-13T08:34:54.640Z,0.54
2018-02-13T08:35:54.629Z,0.55
2018-02-13T08:36:54.614Z,0.57
2018-02-13T08:37:54.692Z,0.59
2018-02-13T08:38:54.645Z,0.59
2018-02-13T08:39:54.638Z,0.6
2018-02-13T08:40:54.688Z,0.62
2018-02-13T08:41:54.671Z,0.64
2018-02-13T08:42:54.648Z,0.64
2018-02-13T08:43:54.708Z,0.66
2018-02-13T08:44:54.669Z,0.67
2018-02-13T08:45:54.638Z,0.69
2018-02-13T08:46:54.651Z,0.71
2018-02-13T08:47:54.638Z,0.77
2018-02-13T08:48:54.626Z,0.78
2018-02-13T08:49:54.752Z,0.8
2018-02-13T08:50:54.654Z,0.83
2018-02-13T08:51:54.660Z,0.84
2018-02-13T08:52:54.620Z,0.83
2018-02-13T08:53:54.649Z,0.85
2018-02-13T08:54:54.671Z,0.87
2018-02-13T08:55:54.637Z,0.9
2018-02-13T08:56:54.639Z,0.94
2018-02-13T08:57:54.647Z,0.92
2018-02-13T08:58:54.683Z,0.94
2018-02-13T08:59:54.659Z,0.96
2018-02-13T09:00:54.488Z,0.96
2018-02-13T09:01:54.499Z,0.98
2018-02-13T09:02:54.514Z,0.99
2018-02-13T09:03:54.488Z,1.01
2018-02-13T09:04:54.504Z,1.01
2018-02-13T09:05:54.527Z,1.01
2018-02-13T09:06:54.921Z,1.01
2018-02-13T09:07:54.497Z,1.03
2018-02-13T09:08:54.519Z,1.01
2018-02-13T09:09:54.499Z,1
2018-02-13T09:10:54.505Z,1.01
2018-02-13T09:11:54.517Z,1.03
2018-02-13T09:12:54.504Z,1.02
2018-02-13T09:13:54.509Z,1.05
2018-02-13T09:14:54.515Z,1.06
2018-02-13T09:15:54.487Z,1.07
2018-02-13T09:16:54.530Z,1.07
2018-02-13T09:17:54.558Z,1.07
2018-02-13T09:18:54.535Z,1.1
2018-02-13T09:19:54.558Z,1.14
2018-02-13T09:20:54.522Z,1.2
2018-02-13T09:21:54.496Z,1.2
2018-02-13T09:22:54.572Z,1.24
2018-02-13T09:23:54.569Z,1.25
2018-02-13T09:24:54.505Z,1.28
2018-02-13T09:25:54.496Z,1.32
2018-02-13T09:26:54.523Z,1.35
2018-02-13T09:27:54.522Z,1.39
2018-02-13T09:28:54.488Z,1.44
2018-02-13T09:29:54.893Z,1.48
2018-02-13T09:30:54.740Z,1.53
2018-02-13T09:31:54.718Z,1.54
2018-02-13T09:32:54.719Z,1.56
2018-02-13T09:33:54.745Z,1.53
2018-02-13T09:34:54.763Z,1.53
2018-02-13T09:35:54.722Z,1.5
2018-02-13T09:36:54.735Z,1.5
2018-02-13T09:37:54.713Z,1.49
2018-02-13T09:38:54.721Z,1.48
2018-02-13T09:39:54.756Z,1.45
2018-02-13T09:40:54.736Z,1.44
2018-02-13T09:41:54.735Z,1.43
2018-02-13T09:42:54.728Z,1.44
2018-02-13T09:43:54.737Z,1.44
2018-02-13T09:44:54.720Z,1.45
2018-02-13T09:45:55.024Z,1.44
2018-02-13T09:46:54.712Z,1.45
2018-02-13T09:47:54.736Z,1.49
2018-02-13T09:48:54.739Z,1.51
2018-02-13T09:49:54.791Z,1.51
2018-02-13T09:50:54.767Z,1.54
2018-02-13T09:51:54.718Z,1.56
2018-02-13T09:52:54.733Z,1.63
2018-02-13T09:53:54.738Z,1.65
2018-02-13T09:54:54.737Z,1.69
2018-02-13T09:55:54.787Z,1.72
2018-02-13T09:56:54.754Z,1.71
2018-02-13T09:57:54.750Z,1.73
2018-02-13T09:58:54.752Z,1.77
2018-02-13T09:59:54.730Z,1.83
2018-02-13T10:00:54.766Z,1.84
2018-02-13T10:01:54.616Z,1.86
2018-02-13T10:02:54.598Z,1.91
2018-02-13T10:03:54.679Z,1.96
2018-02-13T10:04:54.624Z,1.98
2018-02-13T10:05:54.611Z,2.01
2018-02-13T10:06:54.604Z,2.03
2018-02-13T10:07:54.597Z,2.07
2018-02-13T10:08:54.577Z,2.11
2018-02-13T10:09:54.676Z,2.18
2018-02-13T10:10:54.626Z,2.22
2018-02-13T10:11:54.609Z,2.29
2018-02-13T10:12:54.623Z,2.33
2018-02-13T10:13:54.588Z,2.37
2018-02-13T10:14:54.596Z,2.46
2018-02-13T10:15:54.598Z,2.58
2018-02-13T10:16:54.590Z,2.61
2018-02-13T10:17:54.606Z,2.64
2018-02-13T10:18:54.585Z,2.64
2018-02-13T10:19:54.592Z,2.67
2018-02-13T10:20:54.592Z,2.73
2018-02-13T10:21:54.618Z,2.77
2018-02-13T10:22:54.603Z,2.81
2018-02-13T10:23:54.605Z,2.85
2018-02-13T10:24:54.615Z,2.91
2018-02-13T10:25:54.614Z,2.92
2018-02-13T10:26:54.615Z,2.96
2018-02-13T10:27:54.675Z,2.98
2018-02-13T10:28:54.709Z,3.02
2018-02-13T10:29:54.691Z,3.01
2018-02-13T10:30:54.705Z,3.04
2018-02-13T10:31:55.089Z,3.03
2018-02-13T10:32:53.934Z,3.05
2018-02-13T10:33:53.939Z,3.1
2018-02-13T10:34:53.944Z,3.13
2018-02-13T10:35:53.955Z,3.2
2018-02-13T10:36:53.946Z,3.24
2018-02-13T10:37:53.948Z,3.24
2018-02-13T10:38:53.956Z,3.26
2018-02-13T10:39:53.923Z,3.3
2018-02-13T10:40:53.999Z,3.31
2018-02-13T10:41:53.932Z,3.38
2018-02-13T10:42:53.954Z,3.44
2018-02-13T10:43:53.932Z,3.52
2018-02-13T10:44:53.932Z,3.57
2018-02-13T10:45:53.978Z,3.58
2018-02-13T10:46:53.952Z,3.57
2018-02-13T10:47:53.960Z,3.59
2018-02-13T10:48:53.999Z,3.62
2018-02-13T10:49:53.932Z,3.64
2018-02-13T10:50:53.980Z,3.66
2018-02-13T10:51:54.002Z,3.67
2018-02-13T10:52:53.947Z,3.72
2018-02-13T10:54:53.985Z,3.73
2018-02-13T10:55:53.955Z,3.67
2018-02-13T10:56:53.939Z,3.7
2018-02-13T10:57:53.948Z,3.7
2018-02-13T10:58:53.938Z,3.76
2018-02-13T10:59:53.958Z,3.88
2018-02-13T11:00:54.007Z,3.92
2018-02-13T11:01:53.974Z,3.94
2018-02-13T11:02:53.941Z,3.99
2018-02-13T11:03:53.782Z,4
2018-02-13T11:04:53.786Z,4.03
2018-02-13T11:05:53.899Z,4.06
2018-02-13T11:06:54.400Z,4.02
2018-02-13T11:07:53.782Z,4.03
2018-02-13T11:08:53.774Z,4.01
2018-02-13T11:09:53.784Z,4
2018-02-13T11:10:53.833Z,3.96
2018-02-13T11:11:53.845Z,3.92
2018-02-13T11:12:53.796Z,3.88
2018-02-13T11:13:53.769Z,3.8
2018-02-13T11:14:53.911Z,3.76
2018-02-13T11:15:53.794Z,3.77
2018-02-13T11:16:53.810Z,3.78
2018-02-13T11:17:53.768Z,3.78
2018-02-13T11:18:53.784Z,3.84
2018-02-13T11:19:53.799Z,3.89
2018-02-13T11:20:53.764Z,3.96
2018-02-13T11:21:53.789Z,4.04
2018-02-13T11:22:53.791Z,4.13
2018-02-13T11:23:53.794Z,4.16
2018-02-13T11:24:53.807Z,4.28
2018-02-13T11:25:53.782Z,4.39
2018-02-13T11:26:53.912Z,4.51
2018-02-13T11:27:53.829Z,4.55
2018-02-13T11:28:53.789Z,4.58
2018-02-13T11:29:53.820Z,4.63
2018-02-13T11:30:53.780Z,4.72
2018-02-13T11:31:53.778Z,4.76
2018-02-13T11:32:53.787Z,4.8
2018-02-13T11:33:53.770Z,4.86
2018-02-13T11:34:54.642Z,4.9
2018-02-13T11:35:54.684Z,4.96
2018-02-13T11:36:54.651Z,4.99
2018-02-13T11:37:54.646Z,5
2018-02-13T11:38:54.682Z,5.02
2018-02-13T11:39:54.654Z,5.07
2018-02-13T11:40:54.602Z,5.12
2018-02-13T11:41:54.619Z,5.13
2018-02-13T11:42:54.606Z,5.17
2018-02-13T11:43:54.613Z,5.19
2018-02-13T11:44:54.609Z,5.2
2018-02-13T11:45:54.609Z,5.21
2018-02-13T11:46:54.625Z,5.28
2018-02-13T11:47:54.621Z,5.24
2018-02-13T11:48:54.639Z,5.16
2018-02-13T11:49:54.637Z,5.12
2018-02-13T11:50:54.626Z,5.1
2018-02-13T11:51:54.968Z,5.13
2018-02-13T11:52:54.618Z,5.19
2018-02-13T11:54:01.184Z,5.22
2018-02-13T11:55:11.426Z,5.29
2018-02-13T11:56:08.260Z,5.32
2018-02-13T11:56:55.033Z,5.32
2018-02-13T11:57:54.608Z,5.3
2018-02-13T11:58:54.615Z,5.26
2018-02-13T11:59:54.683Z,5.3
2018-02-13T12:00:54.618Z,5.34
2018-02-13T12:01:54.653Z,5.3
2018-02-13T12:02:54.636Z,5.34
2018-02-13T12:03:54.665Z,5.44
2018-02-13T12:04:53.800Z,5.41
2018-02-13T12:05:53.830Z,5.44
2018-02-13T12:06:53.788Z,5.48
2018-02-13T12:07:53.816Z,5.49
2018-02-13T12:08:53.805Z,5.53
2018-02-13T12:09:53.831Z,5.59
2018-02-13T12:10:53.783Z,5.6
2018-02-13T12:11:53.878Z,5.6
2018-02-13T12:12:53.779Z,5.64
2018-02-13T12:13:54.208Z,5.69
2018-02-13T12:14:53.826Z,5.69
2018-02-13T12:15:53.798Z,5.68
2018-02-13T12:16:53.775Z,5.69
2018-02-13T12:17:53.782Z,5.68
2018-02-13T12:18:53.782Z,5.64
2018-02-13T12:19:53.816Z,5.73
2018-02-13T12:20:53.786Z,5.71
2018-02-13T12:21:53.789Z,5.72
2018-02-13T12:22:53.777Z,5.71
2018-02-13T12:23:53.804Z,5.7
2018-02-13T12:24:53.788Z,5.76
2018-02-13T12:25:53.773Z,5.79
2018-02-13T12:26:53.933Z,5.81
2018-02-13T12:27:53.757Z,5.83
2018-02-13T12:28:53.810Z,5.82
2018-02-13T12:29:53.786Z,5.84
2018-02-13T12:30:53.784Z,5.84
2018-02-13T12:31:53.797Z,5.88
2018-02-13T12:32:53.766Z,5.94
2018-02-13T12:33:53.793Z,5.96
2018-02-13T12:34:53.806Z,5.98
2018-02-13T12:35:54.665Z,6
2018-02-13T12:36:54.661Z,6.01
2018-02-13T12:37:54.643Z,6
2018-02-13T12:38:54.630Z,6
2018-02-13T12:39:54.662Z,5.97
2018-02-13T12:40:54.643Z,6.02
2018-02-13T12:41:54.641Z,6.01
2018-02-13T12:42:55.003Z,6.12
2018-02-13T12:43:54.708Z,6.1
2018-02-13T12:44:55.058Z,6.12
2018-02-13T12:45:54.699Z,6.16
2018-02-13T12:46:54.658Z,6.07
2018-02-13T12:47:54.662Z,6.1
2018-02-13T12:48:54.771Z,6.09
2018-02-13T12:49:54.658Z,6.07
2018-02-13T12:50:54.641Z,6.1
2018-02-13T12:51:54.666Z,6.09
2018-02-13T12:52:54.622Z,6.1
2018-02-13T12:53:54.626Z,6.1
2018-02-13T12:54:54.680Z,6.08
2018-02-13T12:55:54.679Z,6.03
2018-02-13T12:56:54.648Z,5.99
2018-02-13T12:57:54.732Z,6.04
2018-02-13T12:58:54.660Z,6.03
2018-02-13T12:59:54.693Z,6.04
2018-02-13T13:00:54.672Z,6.1
2018-02-13T13:01:54.661Z,6.03
2018-02-13T13:02:54.649Z,6.02
2018-02-13T13:03:54.653Z,6.06
2018-02-13T13:04:54.679Z,6.08
2018-02-13T13:05:54.523Z,6
2018-02-13T13:06:54.533Z,5.93
2018-02-13T13:07:54.598Z,5.87
2018-02-13T13:08:54.529Z,5.85
2018-02-13T13:09:54.563Z,5.92
2018-02-13T13:10:54.926Z,5.98
2018-02-13T13:11:54.522Z,5.97
2018-02-13T13:12:54.532Z,5.9
2018-02-13T13:13:54.538Z,5.91
2018-02-13T13:14:54.588Z,5.94
2018-02-13T13:15:54.550Z,5.95
2018-02-13T13:16:54.525Z,5.94
2018-02-13T13:17:54.609Z,5.98
2018-02-13T13:18:54.513Z,5.98
2018-02-13T13:19:54.563Z,5.98
2018-02-13T13:20:54.609Z,5.95
2018-02-13T13:23:03.517Z,6.03
2018-02-13T13:23:54.516Z,6.07
2018-02-13T13:24:54.512Z,6.01
2018-02-13T13:25:54.520Z,6.03
2018-02-13T13:26:54.523Z,5.96
2018-02-13T13:27:54.542Z,5.98